createdAt,value
2022-08-25T00:01:39.927Z,7.13
2022-08-25T00:04:11.326Z,7.47
2022-08-25T00:06:44.272Z,7.10
2022-08-25T00:09:15.267Z,7.27
2022-08-25T00:11:44.400Z,7.07
2022-08-25T00:14:17.265Z,7.40
2022-08-25T00:16:46.857Z,7.80
2022-08-25T00:19:17.629Z,7.00
2022-08-25T00:21:47.071Z,6.87
2022-08-25T00:24:17.663Z,6.87
2022-08-25T00:26:51.922Z,7.73
2022-08-25T00:29:22.933Z,8.13
2022-08-25T00:31:52.480Z,7.53
2022-08-25T00:34:24.130Z,7.23
2022-08-25T00:36:53.217Z,7.63
2022-08-25T00:39:23.957Z,7.13
2022-08-25T00:41:55.887Z,7.37
2022-08-25T00:44:27.042Z,5.73
2022-08-25T00:47:00.129Z,4.97
2022-08-25T00:58:14.164Z,4.13
2022-08-25T01:00:46.896Z,3.80
2022-08-25T01:03:15.783Z,3.60
2022-08-25T01:05:45.810Z,3.77
2022-08-25T01:08:16.352Z,4.80
2022-08-25T01:10:46.314Z,3.53
2022-08-25T01:13:21.930Z,3.30
2022-08-25T01:15:54.114Z,3.30
2022-08-25T01:18:23.085Z,3.77
2022-08-25T01:20:53.718Z,4.37
2022-08-25T01:23:23.263Z,4.20
2022-08-25T01:26:01.295Z,4.30
2022-08-25T01:28:29.932Z,4.10
2022-08-25T01:30:58.735Z,4.90
2022-08-25T01:33:27.651Z,5.00
2022-08-25T01:35:57.529Z,4.87
2022-08-25T01:38:25.969Z,5.20
2022-08-25T01:40:54.412Z,6.37
2022-08-25T01:43:33.548Z,6.73
2022-08-25T01:46:02.139Z,6.63
2022-08-25T01:48:30.578Z,6.07
2022-08-25T01:51:00.477Z,6.73
2022-08-25T01:53:33.294Z,6.50
2022-08-25T01:56:10.993Z,6.73
2022-08-25T01:58:41.993Z,6.67
2022-08-25T02:01:15.879Z,6.97
2022-08-25T02:03:46.414Z,6.87
2022-08-25T02:06:21.318Z,6.57
2022-08-25T02:09:01.108Z,7.40
2022-08-25T02:11:30.507Z,6.67
2022-08-25T02:13:59.186Z,6.77
2022-08-25T02:16:31.819Z,7.10
2022-08-25T02:19:00.911Z,7.23
2022-08-25T02:21:31.104Z,6.17
2022-08-25T02:24:00.053Z,5.40
2022-08-25T02:26:29.284Z,6.33
2022-08-25T02:28:58.114Z,6.10
2022-08-25T02:31:27.284Z,6.20
2022-08-25T02:33:57.214Z,6.17
2022-08-25T02:36:25.943Z,6.20
2022-08-25T02:38:56.005Z,6.17
2022-08-25T02:41:31.487Z,5.80
2022-08-25T02:44:01.274Z,5.77
2022-08-25T02:46:31.154Z,6.40
2022-08-25T02:49:00.300Z,5.83
2022-08-25T02:51:30.212Z,6.20
2022-08-25T02:54:02.150Z,6.63
2022-08-25T02:56:31.857Z,6.83
2022-08-25T02:59:00.466Z,6.57
2022-08-25T03:01:29.742Z,6.00
2022-08-25T03:03:59.162Z,6.20
2022-08-25T03:06:28.165Z,5.30
2022-08-25T03:08:57.246Z,6.10
2022-08-25T03:11:27.120Z,5.20
2022-08-25T03:13:56.535Z,5.20
2022-08-25T03:16:27.719Z,5.00
2022-08-25T03:18:58.364Z,5.67
2022-08-25T03:21:30.283Z,5.30
2022-08-25T03:24:01.172Z,5.20
2022-08-25T03:26:48.758Z,5.40
2022-08-25T03:29:18.457Z,5.87
2022-08-25T03:31:47.094Z,5.17
2022-08-25T03:34:16.991Z,5.57
2022-08-25T03:36:45.686Z,4.80
2022-08-25T03:39:15.143Z,4.93
2022-08-25T03:41:45.502Z,4.80
2022-08-25T03:44:14.700Z,5.60
2022-08-25T03:46:45.687Z,5.10
2022-08-25T03:49:16.735Z,5.33
2022-08-25T03:51:47.532Z,4.90
2022-08-25T03:54:17.650Z,4.60
2022-08-25T03:56:47.547Z,4.90
2022-08-25T03:59:16.206Z,4.73
2022-08-25T04:01:46.089Z,4.00
2022-08-25T04:04:16.272Z,3.30
2022-08-25T04:06:45.891Z,6.13
2022-08-25T04:09:14.382Z,3.00
2022-08-25T04:11:45.032Z,3.23
2022-08-25T04:14:16.478Z,2.57
2022-08-25T04:16:46.130Z,2.67
2022-08-25T04:19:15.051Z,4.67
2022-08-25T04:21:44.000Z,3.37
2022-08-25T04:24:13.815Z,2.87
2022-08-25T04:26:44.630Z,2.80
2022-08-25T04:29:17.198Z,3.47
2022-08-25T04:31:48.715Z,4.73
2022-08-25T04:34:30.952Z,4.10
2022-08-25T04:37:02.690Z,2.77
2022-08-25T04:39:34.524Z,4.00
2022-08-25T04:42:03.848Z,2.67
2022-08-25T04:44:33.826Z,4.80
2022-08-25T04:47:03.407Z,3.27
2022-08-25T04:49:32.058Z,2.47
2022-08-25T04:52:00.607Z,2.97
2022-08-25T04:54:29.186Z,3.20
2022-08-25T04:57:05.928Z,3.30
2022-08-25T04:59:35.793Z,3.00
2022-08-25T05:02:05.416Z,2.53
2022-08-25T05:04:35.130Z,2.40
2022-08-25T05:07:05.662Z,2.60
2022-08-25T05:09:34.421Z,2.57
2022-08-25T05:12:03.557Z,2.47
2022-08-25T05:14:32.804Z,2.97
2022-08-25T05:17:02.894Z,3.43
2022-08-25T05:19:31.359Z,2.83
2022-08-25T05:21:59.784Z,3.67
2022-08-25T05:24:29.662Z,2.83
2022-08-25T05:26:58.865Z,3.30
2022-08-25T05:29:27.412Z,4.10
2022-08-25T05:31:56.125Z,3.47
2022-08-25T05:34:26.034Z,3.70
2022-08-25T05:36:54.692Z,3.47
2022-08-25T05:39:23.169Z,4.20
2022-08-25T05:41:55.425Z,3.17
2022-08-25T05:44:23.894Z,3.80
2022-08-25T05:46:52.563Z,3.87
2022-08-25T05:49:21.039Z,3.60
2022-08-25T05:51:50.951Z,3.47
2022-08-25T05:54:19.795Z,2.73
2022-08-25T05:56:48.466Z,3.07
2022-08-25T05:59:16.918Z,3.10
2022-08-25T06:02:02.724Z,3.90
2022-08-25T06:04:31.309Z,3.13
2022-08-25T06:07:01.200Z,3.70
2022-08-25T06:09:29.718Z,4.73
2022-08-25T06:11:58.282Z,5.07
2022-08-25T06:14:27.914Z,11.37
2022-08-25T06:16:56.997Z,3.97
2022-08-25T06:19:25.537Z,4.27
2022-08-25T06:21:56.390Z,3.20
2022-08-25T06:24:27.274Z,4.00
2022-08-25T06:26:57.032Z,3.50
2022-08-25T06:29:25.770Z,3.80
2022-08-25T06:31:54.446Z,3.63
2022-08-25T06:34:24.174Z,3.93
2022-08-25T06:36:53.857Z,6.57
2022-08-25T06:39:22.832Z,7.40
2022-08-25T06:41:57.228Z,6.80
2022-08-25T06:44:28.266Z,7.03
2022-08-25T06:46:57.495Z,7.80
2022-08-25T06:49:31.845Z,7.40
2022-08-25T06:52:04.996Z,5.97
2022-08-25T06:54:33.464Z,7.50
2022-08-25T06:57:03.692Z,5.73
2022-08-25T06:59:32.729Z,5.80
2022-08-25T07:02:01.252Z,6.50
2022-08-25T07:04:31.881Z,6.20
2022-08-25T07:07:00.357Z,5.70
2022-08-25T07:09:29.651Z,5.67
2022-08-25T07:11:58.858Z,6.67
2022-08-25T07:14:28.746Z,5.37
2022-08-25T07:16:57.966Z,6.27
2022-08-25T07:19:28.011Z,7.00
2022-08-25T07:21:56.459Z,6.93
2022-08-25T07:24:25.415Z,8.53
2022-08-25T07:26:54.061Z,9.20
2022-08-25T07:29:31.943Z,9.73
2022-08-25T07:32:03.317Z,8.47
2022-08-25T07:34:51.824Z,11.27
2022-08-25T07:40:14.115Z,9.43
2022-08-25T07:42:43.715Z,8.73
2022-08-25T07:45:13.882Z,8.03
2022-08-25T07:47:45.648Z,12.57
2022-08-25T07:50:14.737Z,10.83
2022-08-25T07:52:43.269Z,10.60
2022-08-25T07:55:12.139Z,8.10
2022-08-25T07:57:48.944Z,8.87
2022-08-25T08:00:24.025Z,7.07
2022-08-25T08:02:54.764Z,7.40
2022-08-25T08:05:23.940Z,6.67
2022-08-25T08:07:52.991Z,7.53
2022-08-25T08:10:47.935Z,5.50
2022-08-25T08:13:17.708Z,5.27
2022-08-25T08:15:48.507Z,7.27
2022-08-25T08:18:18.583Z,9.83
2022-08-25T08:20:48.393Z,11.73
2022-08-25T08:23:17.750Z,5.93
2022-08-25T08:25:46.201Z,4.27
2022-08-25T08:28:14.698Z,6.07
2022-08-25T08:30:53.459Z,7.20
2022-08-25T08:33:26.477Z,8.07
2022-08-25T08:36:05.113Z,8.37
2022-08-25T08:38:34.968Z,8.60
2022-08-25T08:41:54.276Z,9.60
2022-08-25T08:44:27.819Z,10.47
2022-08-25T08:47:04.893Z,12.50
2022-08-25T08:49:50.779Z,12.37
2022-08-25T08:52:24.009Z,12.23
2022-08-25T08:55:01.224Z,12.30
2022-08-25T08:57:40.521Z,12.37
2022-08-25T09:00:10.781Z,11.57
2022-08-25T09:02:51.337Z,11.63
2022-08-25T09:05:25.532Z,13.90
2022-08-25T09:07:57.580Z,11.83
2022-08-25T09:10:29.536Z,11.07
2022-08-25T09:13:05.879Z,10.63
2022-08-25T09:16:06.555Z,12.13
2022-08-25T09:18:51.381Z,13.35
2022-08-25T09:21:32.253Z,10.50
2022-08-25T09:24:16.976Z,13.83
2022-08-25T09:26:58.905Z,11.70
2022-08-25T09:29:37.817Z,11.20
2022-08-25T09:32:08.841Z,14.10
2022-08-25T09:34:39.174Z,10.93
2022-08-25T09:37:09.017Z,12.00
2022-08-25T09:39:39.063Z,11.70
2022-08-25T09:42:07.950Z,11.43
2022-08-25T09:44:43.653Z,12.20
2022-08-25T09:47:22.269Z,11.45
2022-08-25T09:49:54.536Z,11.90
2022-08-25T09:52:37.508Z,13.93
2022-08-25T09:55:32.464Z,12.10
2022-08-25T09:58:01.630Z,11.23
2022-08-25T10:00:38.264Z,11.20
2022-08-25T10:03:13.792Z,12.70
2022-08-25T10:06:01.218Z,11.98
2022-08-25T10:08:39.523Z,12.00
2022-08-25T10:11:13.188Z,11.20
2022-08-25T10:13:45.300Z,11.83
2022-08-25T10:16:25.113Z,11.43
2022-08-25T10:19:04.505Z,12.40
2022-08-25T10:21:33.891Z,11.45
2022-08-25T10:24:05.857Z,10.95
2022-08-25T10:26:49.579Z,10.97
2022-08-25T10:29:31.241Z,11.63
2022-08-25T10:32:10.245Z,13.35
2022-08-25T10:34:51.385Z,12.00
2022-08-25T10:37:34.396Z,10.60
2022-08-25T10:40:17.040Z,12.70
2022-08-25T10:42:58.401Z,17.55
2022-08-25T10:45:47.898Z,11.60
2022-08-25T10:48:36.503Z,11.13
2022-08-25T10:51:19.508Z,13.68
2022-08-25T10:53:59.964Z,11.45
2022-08-25T10:56:40.965Z,11.43
2022-08-25T10:59:22.343Z,10.57
2022-08-25T11:02:24.087Z,13.02
2022-08-25T11:05:01.753Z,10.85
2022-08-25T11:07:35.427Z,10.85
2022-08-25T11:10:09.912Z,10.57
2022-08-25T11:12:45.840Z,10.43
2022-08-25T11:15:21.383Z,10.23
2022-08-25T11:17:56.895Z,10.20
2022-08-25T11:20:30.049Z,12.18
2022-08-25T11:23:13.800Z,10.40
2022-08-25T11:25:45.103Z,10.23
2022-08-25T11:28:19.598Z,9.80
2022-08-25T11:30:52.540Z,9.63
2022-08-25T11:33:21.758Z,9.90
2022-08-25T11:35:54.874Z,8.95
2022-08-25T11:38:37.044Z,9.57
2022-08-25T11:41:19.029Z,12.57
2022-08-25T11:44:08.719Z,13.85
2022-08-25T11:46:50.303Z,9.25
2022-08-25T11:49:48.792Z,9.02
2022-08-25T11:52:43.228Z,9.07
2022-08-25T11:55:14.663Z,8.90
2022-08-25T11:57:50.545Z,7.63
2022-08-25T12:00:41.570Z,7.80
2022-08-25T12:03:52.254Z,8.05
2022-08-25T12:06:28.107Z,6.63
2022-08-25T12:09:20.739Z,7.30
2022-08-25T12:11:58.269Z,8.40
2022-08-25T12:14:52.789Z,8.25
2022-08-25T12:17:37.825Z,7.82
2022-08-25T12:20:09.687Z,8.88
2022-08-25T12:23:05.548Z,7.15
2022-08-25T12:25:47.174Z,7.25
2022-08-25T12:28:48.342Z,7.20
2022-08-25T12:31:27.006Z,7.00
2022-08-25T12:34:12.595Z,6.45
2022-08-25T12:36:56.166Z,6.57
2022-08-25T12:39:32.118Z,8.23
2022-08-25T12:42:04.659Z,8.27
2022-08-25T12:44:40.948Z,7.88
2022-08-25T12:47:28.146Z,7.30
2022-08-25T12:50:33.413Z,7.70
2022-08-25T12:53:12.430Z,8.65
2022-08-25T12:55:46.752Z,7.60
2022-08-25T12:58:15.427Z,7.50
2022-08-25T13:01:00.877Z,8.15
2022-08-25T13:04:01.681Z,8.05
2022-08-25T13:06:54.684Z,8.80
2022-08-25T13:10:00.621Z,7.72
2022-08-25T13:12:35.419Z,8.30
2022-08-25T13:15:04.047Z,8.20
2022-08-25T13:17:35.604Z,8.05
2022-08-25T13:20:19.551Z,9.02
2022-08-25T13:22:57.207Z,9.00
2022-08-25T13:25:32.383Z,9.77
2022-08-25T13:28:04.258Z,8.52
2022-08-25T13:30:35.065Z,7.10
2022-08-25T13:33:18.209Z,7.93
2022-08-25T13:35:52.228Z,9.10
2022-08-25T13:38:21.327Z,8.43
2022-08-25T13:40:49.806Z,7.30
2022-08-25T13:43:18.542Z,7.65
2022-08-25T13:45:56.743Z,7.43
2022-08-25T13:48:35.789Z,7.40
2022-08-25T13:51:21.562Z,9.38
2022-08-25T13:53:55.659Z,7.72
2022-08-25T13:56:38.437Z,7.20
2022-08-25T13:59:23.388Z,8.65
2022-08-25T14:01:54.167Z,11.65
2022-08-25T14:04:27.406Z,7.55
2022-08-25T14:07:26.497Z,8.38
2022-08-25T14:09:59.034Z,7.45
2022-08-25T14:12:36.263Z,8.00
2022-08-25T14:15:12.871Z,7.82
2022-08-25T14:17:43.993Z,8.15
2022-08-25T14:20:27.313Z,8.38
2022-08-25T14:22:58.857Z,9.25
2022-08-25T14:25:31.367Z,9.23
2022-08-25T14:28:07.325Z,8.35
2022-08-25T14:30:40.152Z,8.50
2022-08-25T14:33:12.959Z,8.40
2022-08-25T14:35:42.235Z,7.68
2022-08-25T14:38:12.641Z,8.02
2022-08-25T14:40:42.627Z,7.72
2022-08-25T14:43:11.186Z,7.22
2022-08-25T14:45:43.344Z,7.60
2022-08-25T14:48:18.827Z,8.18
2022-08-25T14:50:47.908Z,8.70
2022-08-25T14:53:19.352Z,7.45
2022-08-25T14:55:49.369Z,8.63
2022-08-25T14:58:25.781Z,8.13
2022-08-25T15:00:57.492Z,7.68
2022-08-25T15:03:31.793Z,8.15
2022-08-25T15:06:01.456Z,8.40
2022-08-25T15:08:47.204Z,8.18
2022-08-25T15:11:17.499Z,8.52
2022-08-25T15:13:49.342Z,8.07
2022-08-25T15:16:33.913Z,8.63
2022-08-25T15:19:06.985Z,9.57
2022-08-25T15:21:36.643Z,8.60
2022-08-25T15:24:05.663Z,8.75
2022-08-25T15:26:40.203Z,9.30
2022-08-25T15:29:08.990Z,8.07
2022-08-25T15:31:38.842Z,7.93
2022-08-25T15:34:11.627Z,7.93
2022-08-25T15:36:40.936Z,8.45
2022-08-25T15:39:10.381Z,8.68
2022-08-25T15:41:40.364Z,7.68
2022-08-25T15:44:12.601Z,7.78
2022-08-25T15:46:49.688Z,8.07
2022-08-25T15:49:20.870Z,7.88
2022-08-25T15:51:54.425Z,7.68
2022-08-25T15:54:26.753Z,7.80
2022-08-25T15:56:57.682Z,7.57
2022-08-25T15:59:27.875Z,8.25
2022-08-25T16:01:56.460Z,8.57
2022-08-25T16:04:26.378Z,8.82
2022-08-25T16:06:55.779Z,8.43
2022-08-25T16:09:24.324Z,9.10
2022-08-25T16:11:56.211Z,8.15
2022-08-25T16:14:28.021Z,7.53
2022-08-25T16:16:58.206Z,8.80
2022-08-25T16:19:27.510Z,8.05
2022-08-25T16:21:55.992Z,8.00
2022-08-25T16:24:25.885Z,8.43
2022-08-25T16:27:00.261Z,8.23
2022-08-25T16:29:35.877Z,8.15
2022-08-25T16:32:05.201Z,8.82
2022-08-25T16:34:33.802Z,9.23
2022-08-25T16:37:03.198Z,9.02
2022-08-25T16:39:33.038Z,9.90
2022-08-25T16:42:01.521Z,9.32
2022-08-25T16:44:31.868Z,8.57
2022-08-25T16:47:00.474Z,8.60
2022-08-25T16:49:29.030Z,8.07
2022-08-25T16:51:58.019Z,8.63
2022-08-25T16:54:45.298Z,8.20
2022-08-25T16:57:15.907Z,8.55
2022-08-25T16:59:45.773Z,8.63
2022-08-25T17:02:14.384Z,8.45
2022-08-25T17:04:42.921Z,10.82
2022-08-25T17:07:14.245Z,9.82
2022-08-25T17:09:53.183Z,10.27
2022-08-25T17:12:21.621Z,13.52
2022-08-25T17:14:51.536Z,10.35
2022-08-25T17:17:20.133Z,9.60
2022-08-25T17:19:53.364Z,10.63
2022-08-25T17:22:23.494Z,12.20
2022-08-25T17:24:59.102Z,10.82
2022-08-25T17:27:31.160Z,15.95
2022-08-25T17:30:01.052Z,12.15
2022-08-25T17:32:30.378Z,10.38
2022-08-25T17:34:59.534Z,8.93
2022-08-25T17:37:27.984Z,8.73
2022-08-25T17:40:02.980Z,8.52
2022-08-25T17:42:31.898Z,8.85
2022-08-25T17:45:01.748Z,10.82
2022-08-25T17:47:30.376Z,10.68
2022-08-25T17:49:59.368Z,11.60
2022-08-25T17:52:29.235Z,11.05
2022-08-25T17:54:58.897Z,10.50
2022-08-25T17:57:27.726Z,9.63
2022-08-25T17:59:56.178Z,11.27
2022-08-25T18:02:26.222Z,13.32
2022-08-25T18:04:56.989Z,10.90
2022-08-25T18:07:27.232Z,10.77
2022-08-25T18:09:55.672Z,11.00
2022-08-25T18:12:27.511Z,10.10
2022-08-25T18:14:56.247Z,11.18
2022-08-25T18:17:29.141Z,11.75
2022-08-25T18:19:57.873Z,12.02
2022-08-25T18:22:26.794Z,11.63
2022-08-25T18:24:57.170Z,11.40
2022-08-25T18:27:25.642Z,12.07
2022-08-25T18:29:54.646Z,13.05
2022-08-25T18:32:25.968Z,21.88
2022-08-25T18:34:56.491Z,13.68
2022-08-25T18:37:43.077Z,11.60
2022-08-25T18:40:25.641Z,14.48
2022-08-25T18:42:58.158Z,17.17
2022-08-25T18:45:32.422Z,13.60
2022-08-25T18:48:02.475Z,12.80
2022-08-25T18:50:35.670Z,19.15
2022-08-25T18:53:06.147Z,15.43
2022-08-25T18:55:35.584Z,14.27
2022-08-25T18:58:05.840Z,14.43
2022-08-25T19:00:36.414Z,12.60
2022-08-25T19:03:06.314Z,11.93
2022-08-25T19:05:38.611Z,13.60
2022-08-25T19:08:10.464Z,12.93
2022-08-25T19:10:40.653Z,14.07
2022-08-25T19:13:11.034Z,13.83
2022-08-25T19:15:40.950Z,12.73
2022-08-25T19:18:10.883Z,14.60
2022-08-25T19:20:40.982Z,16.63
2022-08-25T19:23:10.025Z,13.00
2022-08-25T19:25:41.739Z,13.90
2022-08-25T19:28:12.549Z,14.43
2022-08-25T19:30:49.830Z,17.83
2022-08-25T19:33:42.848Z,14.40
2022-08-25T19:36:10.711Z,15.17
2022-08-25T19:38:40.005Z,15.63
2022-08-25T19:41:14.002Z,17.47
2022-08-25T19:43:55.582Z,12.00
2022-08-25T19:46:32.992Z,11.63
2022-08-25T19:49:08.037Z,12.80
2022-08-25T19:51:39.960Z,14.30
2022-08-25T19:54:10.233Z,16.37
2022-08-25T19:56:53.623Z,14.13
2022-08-25T19:59:23.412Z,14.90
2022-08-25T20:01:51.988Z,13.30
2022-08-25T20:04:20.517Z,15.00
2022-08-25T20:06:50.804Z,16.53
2022-08-25T20:09:35.608Z,20.40
2022-08-25T20:12:10.388Z,13.93
2022-08-25T20:14:39.259Z,13.97
2022-08-25T20:17:14.686Z,13.87
2022-08-25T20:19:54.307Z,17.57
2022-08-25T20:22:26.457Z,24.00
2022-08-25T20:24:57.809Z,17.03
2022-08-25T20:27:33.429Z,16.00
2022-08-25T20:30:03.238Z,16.83
2022-08-25T20:32:33.094Z,13.60
2022-08-25T20:35:02.196Z,13.70
2022-08-25T20:37:33.794Z,14.43
2022-08-25T20:40:02.891Z,16.57
2022-08-25T20:42:31.626Z,16.70
2022-08-25T20:45:00.356Z,17.60
2022-08-25T20:47:29.940Z,14.47
2022-08-25T20:50:04.502Z,17.97
2022-08-25T20:52:39.198Z,16.57
2022-08-25T20:55:12.495Z,21.23
2022-08-25T20:57:41.629Z,13.50
2022-08-25T21:00:11.706Z,14.23
2022-08-25T21:02:40.223Z,15.70
2022-08-25T21:05:09.388Z,16.27
2022-08-25T21:07:39.316Z,15.17
2022-08-25T21:10:10.547Z,13.37
2022-08-25T21:12:39.382Z,18.23
2022-08-25T21:15:10.001Z,17.33
2022-08-25T21:17:38.637Z,14.57
2022-08-25T21:20:08.491Z,17.20
2022-08-25T21:22:39.898Z,14.90
2022-08-25T21:25:09.869Z,16.00
2022-08-25T21:27:39.199Z,15.33
2022-08-25T21:30:09.272Z,15.43
2022-08-25T21:32:37.883Z,15.17
2022-08-25T21:35:07.903Z,16.33
2022-08-25T21:37:36.625Z,13.60
2022-08-25T21:40:08.765Z,14.37
2022-08-25T21:42:37.383Z,14.43
2022-08-25T21:45:07.666Z,14.63
2022-08-25T21:47:42.784Z,14.43
2022-08-25T21:50:12.659Z,12.97
2022-08-25T21:52:41.228Z,16.43
2022-08-25T21:55:15.693Z,12.73
2022-08-25T21:57:45.770Z,14.00
2022-08-25T22:00:15.218Z,14.17
2022-08-25T22:02:46.040Z,14.17
2022-08-25T22:05:15.414Z,14.70
2022-08-25T22:07:45.142Z,13.60
2022-08-25T22:10:16.413Z,15.60
2022-08-25T22:12:47.000Z,14.10
2022-08-25T22:15:17.754Z,12.53
2022-08-25T22:17:48.082Z,11.80
2022-08-25T22:20:18.126Z,11.43
2022-08-25T22:22:46.850Z,13.00
2022-08-25T22:25:16.922Z,11.50
2022-08-25T22:27:45.383Z,10.70
2022-08-25T22:30:15.267Z,10.87
2022-08-25T22:32:45.600Z,11.60
2022-08-25T22:35:14.455Z,13.77
2022-08-25T22:37:43.177Z,12.23
2022-08-25T22:40:12.686Z,11.00
2022-08-25T22:42:47.384Z,12.67
2022-08-25T22:45:16.549Z,14.90
2022-08-25T22:47:45.203Z,14.90
2022-08-25T22:50:14.539Z,12.47
2022-08-25T22:52:45.887Z,10.93
2022-08-25T22:55:14.467Z,13.40
2022-08-25T22:57:46.317Z,11.87
2022-08-25T23:00:16.550Z,10.50
2022-08-25T23:02:46.215Z,10.33
2022-08-25T23:05:16.114Z,11.20
2022-08-25T23:07:44.707Z,11.67
2022-08-25T23:10:15.436Z,12.97
2022-08-25T23:12:45.734Z,12.67
2022-08-25T23:15:14.737Z,11.57
2022-08-25T23:17:43.251Z,12.57
2022-08-25T23:20:25.908Z,12.53
2022-08-25T23:22:54.706Z,11.50
2022-08-25T23:25:23.617Z,13.87
2022-08-25T23:27:53.576Z,11.40
2022-08-25T23:30:22.463Z,11.70
2022-08-25T23:32:50.936Z,14.93
2022-08-25T23:35:19.547Z,10.03
2022-08-25T23:37:48.667Z,13.37
2022-08-25T23:40:19.248Z,18.23
2022-08-25T23:42:48.303Z,11.20
2022-08-25T23:45:18.639Z,10.73
2022-08-25T23:47:47.152Z,10.40
2022-08-25T23:50:18.400Z,10.33
2022-08-25T23:52:47.790Z,11.00
2022-08-25T23:55:16.281Z,10.40
2022-08-25T23:57:45.175Z,10.27
